createdAt,value
2019-03-12T00:02:09.838Z,2.15
2019-03-12T00:04:42.734Z,1.87
2019-03-12T00:07:12.868Z,1.60
2019-03-12T00:09:43.011Z,1.30
2019-03-12T00:12:14.694Z,1.60
2019-03-12T00:14:44.984Z,2.40
2019-03-12T00:17:16.790Z,2.20
2019-03-12T00:19:46.928Z,2.00
2019-03-12T00:22:17.287Z,2.08
2019-03-12T00:24:47.422Z,1.40
2019-03-12T00:27:23.092Z,1.80
2019-03-12T00:29:53.255Z,1.60
2019-03-12T00:32:23.625Z,1.77
2019-03-12T00:34:53.691Z,2.10
2019-03-12T00:37:23.866Z,1.80
2019-03-12T00:39:54.002Z,1.52
2019-03-12T00:42:24.185Z,1.43
2019-03-12T00:44:54.305Z,1.40
2019-03-12T00:47:25.032Z,1.47
2019-03-12T00:49:55.162Z,1.52
2019-03-12T00:52:27.936Z,1.62
2019-03-12T00:55:01.103Z,1.55
2019-03-12T00:57:33.989Z,1.33
2019-03-12T01:00:08.065Z,2.60
2019-03-12T01:02:41.724Z,2.57
2019-03-12T01:05:12.252Z,1.43
2019-03-12T01:07:44.527Z,1.43
2019-03-12T01:10:15.334Z,1.23
2019-03-12T01:12:46.530Z,1.70
2019-03-12T01:15:17.058Z,1.57
2019-03-12T01:17:47.276Z,2.07
2019-03-12T01:20:18.994Z,1.60
2019-03-12T01:22:49.026Z,1.50
2019-03-12T01:25:19.751Z,1.70
2019-03-12T01:27:49.727Z,1.60
2019-03-12T01:30:19.982Z,1.37
2019-03-12T01:32:50.698Z,1.53
2019-03-12T01:37:48.589Z,1.53
2019-03-12T01:40:18.478Z,1.33
2019-03-12T01:42:48.500Z,1.70
2019-03-12T01:45:18.437Z,1.30
2019-03-12T01:47:48.436Z,1.70
2019-03-12T01:50:19.305Z,1.63
2019-03-12T01:52:49.751Z,1.47
2019-03-12T01:55:19.718Z,1.70
2019-03-12T01:57:49.746Z,1.57
2019-03-12T02:00:20.272Z,1.20
2019-03-12T02:02:50.709Z,1.87
2019-03-12T02:05:21.272Z,1.57
2019-03-12T02:07:51.265Z,1.60
2019-03-12T02:10:21.726Z,1.60
2019-03-12T02:12:52.069Z,1.70
2019-03-12T02:15:22.204Z,1.80
2019-03-12T02:17:52.954Z,1.40
2019-03-12T02:20:23.998Z,2.12
2019-03-12T02:22:54.206Z,1.30
2019-03-12T02:25:24.860Z,1.50
2019-03-12T02:27:55.335Z,1.30
2019-03-12T02:30:25.666Z,1.50
2019-03-12T02:32:57.758Z,1.42
2019-03-12T02:35:33.219Z,1.80
2019-03-12T02:38:04.264Z,1.50
2019-03-12T02:40:38.945Z,1.60
2019-03-12T02:43:09.085Z,1.50
2019-03-12T02:45:39.322Z,1.45
2019-03-12T02:48:09.360Z,1.52
2019-03-12T02:50:40.709Z,1.50
2019-03-12T02:53:10.601Z,1.75
2019-03-12T02:55:40.753Z,1.75
2019-03-12T02:58:10.705Z,1.22
2019-03-12T03:00:40.834Z,2.00
2019-03-12T03:03:11.067Z,1.75
2019-03-12T03:06:03.134Z,1.60
2019-03-12T03:08:34.366Z,1.42
2019-03-12T03:11:05.552Z,1.42
2019-03-12T03:13:35.858Z,1.40
2019-03-12T03:16:05.969Z,1.92
2019-03-12T03:18:37.084Z,1.70
2019-03-12T03:21:08.714Z,1.60
2019-03-12T03:23:38.626Z,1.90
2019-03-12T03:26:08.562Z,1.80
2019-03-12T03:28:42.182Z,1.80
2019-03-12T03:31:13.145Z,1.40
2019-03-12T03:33:43.466Z,1.65
2019-03-12T03:36:13.656Z,1.30
2019-03-12T03:38:43.726Z,1.32
2019-03-12T03:41:13.922Z,2.67
2019-03-12T03:43:44.734Z,1.60
2019-03-12T03:46:15.901Z,2.47
2019-03-12T03:48:46.125Z,1.55
2019-03-12T03:51:15.955Z,1.85
2019-03-12T03:53:46.282Z,1.82
2019-03-12T03:56:17.020Z,1.80
2019-03-12T03:58:47.570Z,1.77
2019-03-12T04:01:17.949Z,1.80
2019-03-12T04:03:48.473Z,1.42
2019-03-12T04:06:18.474Z,1.45
2019-03-12T04:08:48.514Z,2.00
2019-03-12T04:11:18.561Z,1.90
2019-03-12T04:13:48.451Z,1.90
2019-03-12T04:16:19.365Z,1.82
2019-03-12T04:18:49.700Z,2.17
2019-03-12T04:21:19.897Z,1.30
2019-03-12T04:23:49.799Z,2.07
2019-03-12T04:26:20.112Z,1.87
2019-03-12T04:28:50.266Z,2.92
2019-03-12T04:31:20.339Z,2.00
2019-03-12T04:34:19.639Z,2.10
2019-03-12T04:36:50.815Z,2.55
2019-03-12T04:39:21.075Z,2.50
2019-03-12T04:41:51.330Z,1.98
2019-03-12T04:44:21.208Z,1.82
2019-03-12T04:46:51.152Z,1.90
2019-03-12T04:49:21.016Z,2.00
2019-03-12T04:51:50.963Z,1.80
2019-03-12T04:54:20.833Z,1.85
2019-03-12T04:56:50.833Z,1.77
2019-03-12T04:59:21.205Z,1.85
2019-03-12T05:01:51.242Z,1.95
2019-03-12T05:04:21.091Z,2.08
2019-03-12T05:06:51.091Z,2.52
2019-03-12T05:09:21.104Z,2.60
2019-03-12T05:11:51.441Z,3.40
2019-03-12T05:14:26.208Z,2.50
2019-03-12T05:16:59.388Z,3.20
2019-03-12T05:19:30.534Z,2.60
2019-03-12T05:22:01.111Z,2.58
2019-03-12T05:24:33.228Z,2.25
2019-03-12T05:27:03.550Z,2.20
2019-03-12T05:29:34.000Z,2.20
2019-03-12T05:32:04.194Z,1.87
2019-03-12T05:34:35.338Z,2.50
2019-03-12T05:37:05.780Z,2.55
2019-03-12T05:39:36.690Z,2.02
2019-03-12T05:42:07.453Z,2.33
2019-03-12T05:44:37.920Z,2.20
2019-03-12T05:47:08.459Z,2.02
2019-03-12T05:49:39.012Z,2.25
2019-03-12T05:52:09.277Z,2.20
2019-03-12T05:54:39.899Z,1.50
2019-03-12T05:57:10.029Z,2.30
2019-03-12T05:59:40.343Z,1.90
2019-03-12T06:02:10.805Z,1.87
2019-03-12T06:04:41.071Z,1.80
2019-03-12T06:07:11.971Z,1.40
2019-03-12T06:09:42.442Z,1.82
2019-03-12T06:12:12.602Z,1.40
2019-03-12T06:14:42.824Z,1.85
2019-03-12T06:17:13.496Z,1.45
2019-03-12T06:19:43.942Z,1.43
2019-03-12T06:22:14.383Z,1.25
2019-03-12T06:24:44.573Z,1.65
2019-03-12T06:27:17.967Z,1.87
2019-03-12T06:29:47.174Z,1.70
2019-03-12T06:32:36.455Z,2.10
2019-03-12T06:35:26.068Z,2.33
2019-03-12T06:38:08.059Z,2.00
2019-03-12T06:40:57.157Z,1.70
2019-03-12T06:43:43.646Z,1.43
2019-03-12T06:46:25.298Z,1.57
2019-03-12T06:49:08.638Z,1.90
2019-03-12T06:51:45.354Z,1.70
2019-03-12T06:54:40.920Z,1.43
2019-03-12T06:57:21.943Z,2.03
2019-03-12T07:00:05.445Z,1.60
2019-03-12T07:03:12.904Z,2.00
2019-03-12T07:06:02.206Z,1.70
2019-03-12T07:08:44.072Z,2.30
2019-03-12T07:11:32.316Z,1.92
2019-03-12T07:14:08.707Z,1.93
2019-03-12T07:17:04.002Z,2.00
2019-03-12T07:19:57.321Z,1.83
2019-03-12T07:22:36.968Z,1.73
2019-03-12T07:25:20.416Z,2.10
2019-03-12T07:28:09.429Z,2.77
2019-03-12T07:30:56.340Z,2.70
2019-03-12T07:33:54.506Z,2.87
2019-03-12T07:36:45.125Z,2.70
2019-03-12T07:39:43.198Z,3.47
2019-03-12T07:42:34.996Z,2.90
2019-03-12T07:45:12.205Z,3.00
2019-03-12T07:48:02.661Z,3.00
2019-03-12T07:50:44.253Z,2.90
2019-03-12T07:53:33.510Z,3.37
2019-03-12T07:56:21.130Z,3.10
2019-03-12T07:59:10.438Z,2.80
2019-03-12T08:02:02.679Z,2.90
2019-03-12T08:05:01.024Z,2.53
2019-03-12T08:07:49.114Z,3.13
2019-03-12T08:10:41.258Z,3.50
2019-03-12T08:13:20.957Z,2.33
2019-03-12T08:16:10.626Z,3.00
2019-03-12T08:19:02.642Z,3.53
2019-03-12T08:21:51.772Z,3.33
2019-03-12T08:24:42.449Z,3.73
2019-03-12T08:27:45.154Z,2.90
2019-03-12T08:30:47.286Z,3.30
2019-03-12T08:33:49.577Z,3.23
2019-03-12T08:36:28.540Z,2.80
2019-03-12T08:39:13.178Z,3.47
2019-03-12T08:42:09.298Z,3.30
2019-03-12T08:45:05.032Z,3.47
2019-03-12T08:47:54.842Z,3.93
2019-03-12T08:50:50.541Z,4.03
2019-03-12T08:53:28.844Z,3.87
2019-03-12T08:56:07.410Z,3.60
2019-03-12T08:58:59.998Z,3.03
2019-03-12T09:01:55.642Z,4.27
2019-03-12T09:04:51.822Z,3.27
2019-03-12T09:07:42.291Z,2.67
2019-03-12T09:10:32.097Z,3.33
2019-03-12T09:13:08.056Z,2.73
2019-03-12T09:15:55.982Z,2.93
2019-03-12T09:18:43.534Z,3.70
2019-03-12T09:21:37.089Z,2.97
2019-03-12T09:24:16.921Z,2.70
2019-03-12T09:26:54.194Z,3.33
2019-03-12T09:29:36.820Z,3.33
2019-03-12T09:32:26.219Z,3.10
2019-03-12T09:35:18.074Z,3.63
2019-03-12T09:38:05.848Z,2.60
2019-03-12T09:40:53.624Z,3.13
2019-03-12T09:43:39.759Z,2.80
2019-03-12T09:46:24.125Z,3.43
2019-03-12T09:49:12.277Z,3.00
2019-03-12T09:51:51.730Z,3.10
2019-03-12T09:54:29.692Z,3.10
2019-03-12T09:57:21.846Z,3.23
2019-03-12T10:00:15.609Z,3.03
2019-03-12T10:02:55.855Z,3.40
2019-03-12T10:05:42.803Z,4.10
2019-03-12T10:08:34.574Z,3.57
2019-03-12T10:11:29.884Z,3.30
2019-03-12T10:14:17.324Z,2.60
2019-03-12T10:17:12.418Z,3.67
2019-03-12T10:20:01.958Z,3.03
2019-03-12T10:22:59.995Z,3.40
2019-03-12T10:25:44.561Z,3.00
2019-03-12T10:28:26.176Z,3.50
2019-03-12T10:31:21.145Z,3.00
2019-03-12T10:34:29.600Z,3.53
2019-03-12T10:37:19.797Z,2.90
2019-03-12T10:40:12.067Z,2.60
2019-03-12T10:43:27.735Z,3.27
2019-03-12T10:46:23.192Z,2.80
2019-03-12T10:48:53.448Z,2.97
2019-03-12T10:51:27.808Z,3.10
2019-03-12T10:54:00.666Z,3.23
2019-03-12T10:56:30.905Z,3.17
2019-03-12T10:59:01.486Z,2.63
2019-03-12T11:01:31.782Z,3.50
2019-03-12T11:04:03.003Z,3.00
2019-03-12T11:06:33.375Z,2.70
2019-03-12T11:09:05.451Z,2.97
2019-03-12T11:11:36.042Z,2.30
2019-03-12T11:14:08.610Z,1.93
2019-03-12T11:16:38.877Z,2.93
2019-03-12T11:19:09.234Z,2.80
2019-03-12T11:21:39.851Z,2.67
2019-03-12T11:24:09.957Z,2.37
2019-03-12T11:26:40.360Z,2.53
2019-03-12T11:29:10.542Z,2.57
2019-03-12T11:31:40.908Z,3.40
2019-03-12T11:34:11.253Z,2.80
2019-03-12T11:36:41.578Z,2.93
2019-03-12T11:39:11.868Z,3.00
2019-03-12T11:41:42.158Z,2.93
2019-03-12T11:44:12.455Z,2.50
2019-03-12T11:46:45.528Z,1.90
2019-03-12T11:49:15.156Z,2.47
2019-03-12T11:51:45.408Z,2.40
2019-03-12T11:54:15.760Z,2.63
2019-03-12T11:56:46.163Z,3.10
2019-03-12T11:59:16.699Z,2.60
2019-03-12T12:01:47.063Z,2.30
2019-03-12T12:04:17.749Z,3.60
2019-03-12T12:06:48.082Z,2.30
2019-03-12T12:09:18.343Z,3.07
2019-03-12T12:11:48.626Z,2.87
2019-03-12T12:14:19.134Z,2.77
2019-03-12T12:16:54.014Z,2.03
2019-03-12T12:19:23.794Z,2.07
2019-03-12T12:21:55.513Z,2.13
2019-03-12T12:24:26.748Z,2.57
2019-03-12T12:26:58.214Z,2.57
2019-03-12T12:29:28.384Z,2.20
2019-03-12T12:31:58.727Z,2.27
2019-03-12T12:34:32.200Z,1.60
2019-03-12T12:37:02.589Z,2.57
2019-03-12T12:39:32.936Z,2.80
2019-03-12T12:42:03.305Z,2.70
2019-03-12T12:44:33.546Z,2.80
2019-03-12T12:47:03.952Z,2.90
2019-03-12T12:49:34.361Z,2.73
2019-03-12T12:52:04.638Z,2.60
2019-03-12T12:54:35.747Z,2.93
2019-03-12T12:57:06.640Z,2.13
2019-03-12T12:59:37.884Z,2.47
2019-03-12T13:02:09.590Z,2.60
2019-03-12T13:04:39.949Z,2.60
2019-03-12T13:07:10.456Z,3.00
2019-03-12T13:09:41.055Z,2.47
2019-03-12T13:12:11.388Z,2.60
2019-03-12T13:14:41.963Z,2.27
2019-03-12T13:17:12.583Z,2.77
2019-03-12T13:19:43.128Z,2.60
2019-03-12T13:22:13.602Z,2.17
2019-03-12T13:24:44.000Z,2.40
2019-03-12T13:27:15.010Z,2.10
2019-03-12T13:29:45.282Z,2.37
2019-03-12T13:32:15.819Z,2.90
2019-03-12T13:34:46.835Z,3.20
2019-03-12T13:37:17.175Z,2.63
2019-03-12T13:39:48.272Z,2.73
2019-03-12T13:42:20.069Z,2.70
2019-03-12T13:44:50.848Z,2.17
2019-03-12T13:47:21.676Z,2.20
2019-03-12T13:49:52.649Z,2.43
2019-03-12T13:52:22.933Z,2.70
2019-03-12T13:54:53.674Z,3.20
2019-03-12T13:57:24.218Z,2.20
2019-03-12T13:59:54.934Z,2.90
2019-03-12T14:02:25.509Z,3.03
2019-03-12T14:04:58.672Z,2.60
2019-03-12T14:07:29.041Z,2.40
2019-03-12T14:09:59.842Z,2.40
2019-03-12T14:12:32.145Z,2.73
2019-03-12T14:15:03.086Z,2.10
2019-03-12T14:17:33.467Z,2.77
2019-03-12T14:20:39.799Z,2.47
2019-03-12T14:23:10.444Z,2.33
2019-03-12T14:25:40.731Z,2.00
2019-03-12T14:28:12.421Z,2.67
2019-03-12T14:30:42.874Z,2.17
2019-03-12T14:33:13.676Z,2.50
2019-03-12T14:35:51.606Z,2.40
2019-03-12T14:38:17.149Z,2.70
2019-03-12T14:40:48.206Z,2.40
2019-03-12T14:43:18.781Z,2.13
2019-03-12T14:45:52.124Z,2.77
2019-03-12T14:48:43.230Z,2.40
2019-03-12T14:51:40.287Z,2.17
2019-03-12T14:54:11.062Z,2.10
2019-03-12T14:56:42.859Z,2.20
2019-03-12T14:59:16.279Z,2.27
2019-03-12T15:01:47.456Z,2.80
2019-03-12T15:04:18.796Z,2.30
2019-03-12T15:06:50.935Z,2.40
2019-03-12T15:09:21.840Z,1.80
2019-03-12T15:14:23.970Z,2.30
2019-03-12T15:16:55.095Z,2.10
2019-03-12T15:19:25.705Z,2.50
2019-03-12T15:21:56.184Z,2.80
2019-03-12T15:24:27.805Z,2.50
2019-03-12T15:26:58.247Z,1.83
2019-03-12T15:29:28.777Z,1.80
2019-03-12T15:32:04.475Z,1.70
2019-03-12T15:34:32.541Z,2.43
2019-03-12T15:37:03.683Z,2.70
2019-03-12T15:39:35.590Z,1.90
2019-03-12T15:42:08.566Z,2.10
2019-03-12T15:44:39.460Z,2.50
2019-03-12T15:47:09.974Z,2.83
2019-03-12T15:49:42.794Z,2.40
2019-03-12T15:52:13.778Z,2.20
2019-03-12T15:54:44.560Z,2.13
2019-03-12T15:57:15.059Z,1.60
2019-03-12T15:59:45.392Z,2.10
2019-03-12T16:02:16.146Z,2.37
2019-03-12T16:04:46.479Z,2.20
2019-03-12T16:07:17.531Z,2.37
2019-03-12T16:09:48.225Z,2.33
2019-03-12T16:12:18.895Z,1.70
2019-03-12T16:14:49.342Z,2.20
2019-03-12T16:17:19.724Z,2.57
2019-03-12T16:19:57.034Z,2.17
2019-03-12T16:22:28.423Z,2.00
2019-03-12T16:24:59.881Z,1.90
2019-03-12T16:27:30.653Z,2.00
2019-03-12T16:30:00.989Z,2.20
2019-03-12T16:32:35.130Z,2.33
2019-03-12T16:35:04.627Z,1.70
2019-03-12T16:37:35.228Z,1.97
2019-03-12T16:40:06.228Z,2.17
2019-03-12T16:42:36.921Z,1.80
2019-03-12T16:45:08.151Z,2.30
2019-03-12T16:47:38.884Z,2.87
2019-03-12T16:50:09.411Z,1.50
2019-03-12T16:52:39.838Z,1.73
2019-03-12T16:55:10.254Z,2.10
2019-03-12T16:57:40.711Z,1.87
2019-03-12T17:00:12.290Z,1.87
2019-03-12T17:02:42.612Z,1.73
2019-03-12T17:05:13.127Z,2.17
2019-03-12T17:07:43.597Z,2.20
2019-03-12T17:10:14.679Z,1.70
2019-03-12T17:12:45.744Z,1.73
2019-03-12T17:15:17.076Z,1.37
2019-03-12T17:17:47.455Z,1.60
2019-03-12T17:20:17.987Z,2.40
2019-03-12T17:22:48.747Z,1.50
2019-03-12T17:25:18.995Z,1.63
2019-03-12T17:27:51.816Z,1.40
2019-03-12T17:30:22.407Z,1.60
2019-03-12T17:32:53.468Z,1.40
2019-03-12T17:35:25.688Z,1.53
2019-03-12T17:37:56.001Z,1.77
2019-03-12T17:40:25.423Z,1.67
2019-03-12T17:42:55.673Z,1.63
2019-03-12T17:45:25.949Z,1.67
2019-03-12T17:47:56.580Z,1.80
2019-03-12T17:50:27.039Z,1.60
2019-03-12T17:52:57.439Z,1.60
2019-03-12T17:55:28.699Z,1.43
2019-03-12T17:57:59.181Z,1.60
2019-03-12T18:00:30.397Z,1.53
2019-03-12T18:05:42.546Z,1.60
2019-03-12T18:08:12.889Z,1.73
2019-03-12T18:10:43.084Z,1.90
2019-03-12T18:13:15.233Z,1.30
2019-03-12T18:15:45.683Z,1.40
2019-03-12T18:18:17.263Z,1.43
2019-03-12T18:20:47.453Z,1.50
2019-03-12T18:23:17.950Z,1.43
2019-03-12T18:25:48.336Z,1.33
2019-03-12T18:28:19.933Z,1.50
2019-03-12T18:30:51.804Z,1.63
2019-03-12T18:33:25.468Z,1.80
2019-03-12T18:35:55.703Z,1.40
2019-03-12T18:38:25.991Z,1.27
2019-03-12T18:40:56.522Z,1.97
2019-03-12T18:43:27.296Z,2.10
2019-03-12T18:45:57.956Z,1.40
2019-03-12T18:48:28.316Z,1.17
2019-03-12T18:50:58.450Z,1.63
2019-03-12T18:53:28.679Z,1.67
2019-03-12T18:56:17.892Z,1.70
2019-03-12T18:58:48.161Z,1.57
2019-03-12T19:01:18.682Z,1.50
2019-03-12T19:04:20.090Z,1.57
2019-03-12T19:07:01.637Z,1.57
2019-03-12T19:09:42.557Z,1.40
2019-03-12T19:12:23.583Z,1.77
2019-03-12T19:15:04.811Z,1.70
2019-03-12T19:17:46.587Z,1.80
2019-03-12T19:20:47.552Z,1.80
2019-03-12T19:23:29.876Z,2.20
2019-03-12T19:26:11.583Z,1.53
2019-03-12T19:29:00.644Z,1.60
2019-03-12T19:32:08.473Z,1.63
2019-03-12T19:35:17.613Z,1.90
2019-03-12T19:38:06.750Z,1.30
2019-03-12T19:43:58.486Z,1.73
2019-03-12T19:46:58.651Z,1.70
2019-03-12T19:49:39.714Z,1.63
2019-03-12T19:55:49.803Z,1.20
2019-03-12T20:02:16.086Z,1.47
2019-03-12T20:05:10.407Z,1.40
2019-03-12T20:07:52.133Z,1.10
2019-03-12T20:11:00.043Z,1.67
2019-03-12T20:14:07.793Z,1.67
2019-03-12T20:17:16.832Z,1.80
2019-03-12T20:20:25.544Z,1.30
2019-03-12T20:23:33.704Z,1.87
2019-03-12T20:26:42.049Z,1.63
2019-03-12T20:29:50.381Z,1.53
2019-03-12T20:32:58.262Z,2.33
2019-03-12T20:35:39.073Z,1.63
2019-03-12T20:38:47.853Z,2.00
2019-03-12T20:41:58.004Z,1.10
2019-03-12T20:45:07.677Z,1.30
2019-03-12T20:48:19.801Z,1.27
2019-03-12T20:51:03.716Z,1.47
2019-03-12T20:54:30.236Z,1.40
2019-03-12T20:57:38.334Z,1.20
2019-03-12T21:00:20.033Z,1.43
2019-03-12T21:03:03.335Z,1.53
2019-03-12T21:06:11.319Z,1.30
2019-03-12T21:09:19.747Z,1.30
2019-03-12T21:12:45.733Z,1.40
2019-03-12T21:15:56.844Z,1.37
2019-03-12T21:19:05.065Z,1.10
2019-03-12T21:21:48.042Z,1.43
2019-03-12T21:24:33.217Z,1.30
2019-03-12T21:27:15.131Z,1.50
2019-03-12T21:29:56.753Z,1.13
2019-03-12T21:33:15.282Z,1.33
2019-03-12T21:38:52.611Z,1.47
2019-03-12T21:41:34.662Z,1.37
2019-03-12T21:44:16.623Z,1.33
2019-03-12T21:46:47.243Z,1.70
2019-03-12T21:49:19.391Z,1.80
2019-03-12T21:51:51.297Z,1.33
2019-03-12T21:54:24.768Z,1.40
2019-03-12T21:56:58.440Z,1.33
2019-03-12T21:59:29.598Z,1.40
2019-03-12T22:02:01.036Z,1.10
2019-03-12T22:04:31.289Z,1.50
2019-03-12T22:07:03.566Z,1.27
2019-03-12T22:09:35.658Z,1.70
2019-03-12T22:12:06.595Z,1.07
2019-03-12T22:14:37.409Z,1.40
2019-03-12T22:17:11.653Z,1.20
2019-03-12T22:19:42.025Z,1.40
2019-03-12T22:22:34.415Z,1.40
2019-03-12T22:25:10.385Z,1.07
2019-03-12T22:27:41.771Z,1.07
2019-03-12T22:30:16.119Z,1.10
2019-03-12T22:32:46.897Z,1.20
2019-03-12T22:35:17.867Z,1.60
2019-03-12T22:37:48.952Z,1.10
2019-03-12T22:40:20.201Z,1.30
2019-03-12T22:42:50.724Z,1.20
2019-03-12T22:45:22.599Z,1.03
2019-03-12T22:47:54.504Z,1.47
2019-03-12T22:50:26.511Z,1.30
2019-03-12T22:53:00.451Z,1.57
2019-03-12T22:55:32.351Z,1.30
2019-03-12T22:58:05.131Z,1.23
2019-03-12T23:00:40.077Z,0.97
2019-03-12T23:03:11.737Z,1.23
2019-03-12T23:05:42.097Z,1.23
2019-03-12T23:08:12.323Z,1.33
2019-03-12T23:10:42.945Z,1.10
2019-03-12T23:13:13.171Z,1.33
2019-03-12T23:15:43.529Z,1.43
2019-03-12T23:18:14.091Z,1.50
2019-03-12T23:20:45.011Z,1.30
2019-03-12T23:23:15.274Z,1.50
2019-03-12T23:25:46.022Z,1.10
2019-03-12T23:28:17.781Z,1.00
2019-03-12T23:30:51.733Z,1.20
2019-03-12T23:33:22.415Z,1.33
2019-03-12T23:35:52.806Z,1.47
2019-03-12T23:38:22.890Z,1.60
2019-03-12T23:40:53.445Z,1.40
2019-03-12T23:43:23.616Z,1.60
2019-03-12T23:45:54.022Z,1.50
2019-03-12T23:48:26.435Z,1.40
2019-03-12T23:50:57.376Z,1.40
2019-03-12T23:53:27.739Z,1.20
2019-03-12T23:55:58.246Z,1.37
2019-03-12T23:58:32.640Z,1.23
